Time;durP1;ratioP1;P1;durP2;ratioP2;P2;SDS_P1;SDS_P2;PMS_P1;PMS_P2;Temp;Humidity;BMP_temperature;BMP_pressure;BME280_temperature;BME280_humidity;BME280_pressure;Samples;Min_cycle;Max_cycle;Signal;HPM_P1;HPM_P2
2021/10/09 00:01:24;;;;;;;17.83;13.77;;;13.30;83.30;;;;;;5117342;27;20133;-79
2021/10/09 00:03:51;;;;;;;20.30;13.88;;;13.30;83.30;;;;;;5117152;27;20185;-79
2021/10/09 00:06:17;;;;;;;17.63;13.95;;;13.20;83.30;;;;;;5117288;27;20482;-77
2021/10/09 00:08:43;;;;;;;18.02;13.52;;;13.20;83.40;;;;;;5117234;27;20041;-76
2021/10/09 00:11:16;;;;;;;15.93;12.68;;;13.20;83.40;;;;;;5117334;27;20117;-77
2021/10/09 00:13:41;;;;;;;18.42;13.52;;;13.20;83.50;;;;;;5117045;27;20079;-76
2021/10/09 00:16:07;;;;;;;18.73;13.98;;;13.10;83.40;;;;;;5117191;27;20423;-78
2021/10/09 00:18:33;;;;;;;19.63;14.18;;;13.10;83.50;;;;;;5117312;27;20076;-78
2021/10/09 00:24:20;;;;;;;18.65;13.25;;;13.10;83.60;;;;;;5135638;27;20513;-78
2021/10/09 00:26:47;;;;;;;19.45;13.40;;;13.10;83.60;;;;;;5135817;27;20027;-79
2021/10/09 00:29:14;;;;;;;18.58;13.98;;;13.10;83.60;;;;;;5135515;27;20027;-77
2021/10/09 00:31:39;;;;;;;19.30;13.60;;;13.10;83.70;;;;;;5135262;27;20115;-77
2021/10/09 00:34:06;;;;;;;17.15;13.85;;;13.10;83.70;;;;;;5135090;27;20067;-78
2021/10/09 00:36:32;;;;;;;16.95;13.60;;;13.10;83.70;;;;;;5116430;27;20612;-77
2021/10/09 00:38:58;;;;;;;16.27;13.30;;;13.00;83.70;;;;;;5116490;27;20035;-77
2021/10/09 00:41:24;;;;;;;18.08;14.23;;;13.00;83.70;;;;;;5116393;27;20024;-78
2021/10/09 00:43:49;;;;;;;18.27;14.35;;;13.10;83.80;;;;;;5134942;27;20392;-79
2021/10/09 00:46:16;;;;;;;18.15;14.82;;;13.00;83.80;;;;;;5112876;28;20039;-79
2021/10/09 00:48:42;;;;;;;18.85;14.13;;;13.00;83.80;;;;;;5116338;27;20031;-78
2021/10/09 00:51:07;;;;;;;18.52;13.93;;;13.00;83.90;;;;;;5116267;27;20052;-77
2021/10/09 00:53:36;;;;;;;19.65;14.35;;;13.00;83.90;;;;;;5134564;27;20028;-77
2021/10/09 00:56:03;;;;;;;19.50;13.60;;;12.90;83.90;;;;;;5116092;27;20117;-77
2021/10/09 00:58:29;;;;;;;18.55;13.50;;;13.00;84.00;;;;;;5115961;27;20095;-77
2021/10/09 01:00:55;;;;;;;18.42;13.80;;;13.00;84.00;;;;;;5134564;27;20475;-77
2021/10/09 01:03:21;;;;;;;17.80;13.73;;;12.90;83.90;;;;;;5115893;27;20066;-78
2021/10/09 01:05:48;;;;;;;17.73;13.98;;;12.90;83.90;;;;;;5134558;27;20024;-78
2021/10/09 01:11:35;;;;;;;17.40;13.57;;;12.90;84.00;;;;;;5134798;27;20079;-77
2021/10/09 01:14:01;;;;;;;19.05;14.27;;;12.90;84.00;;;;;;5115948;27;20027;-78
2021/10/09 01:16:29;;;;;;;18.17;14.25;;;12.80;84.00;;;;;;5116073;27;20019;-78
2021/10/09 01:18:56;;;;;;;20.63;14.93;;;12.80;84.20;;;;;;5115815;27;20034;-78
2021/10/09 01:21:23;;;;;;;19.02;14.52;;;12.80;84.20;;;;;;5116402;27;20455;-78
2021/10/09 01:23:50;;;;;;;18.65;14.50;;;12.70;84.20;;;;;;5115810;27;20054;-78
2021/10/09 01:26:16;;;;;;;19.17;15.45;;;12.70;84.20;;;;;;5134254;27;20019;-78
2021/10/09 01:28:46;;;;;;;19.98;14.85;;;12.70;84.30;;;;;;5112876;27;20019;-78
2021/10/09 01:31:12;;;;;;;19.88;15.02;;;12.70;84.40;;;;;;5115951;27;20019;-77
2021/10/09 01:33:39;;;;;;;18.75;14.55;;;12.70;84.40;;;;;;5116148;27;20022;-77
2021/10/09 01:36:05;;;;;;;20.60;14.73;;;12.60;84.40;;;;;;5116647;27;20107;-78
2021/10/09 01:38:30;;;;;;;20.17;14.60;;;12.70;84.50;;;;;;5135243;27;20023;-78
2021/10/09 01:40:57;;;;;;;20.77;16.00;;;12.60;84.50;;;;;;5117046;27;20083;-78
2021/10/09 01:43:25;;;;;;;20.13;15.52;;;12.60;84.50;;;;;;5117521;27;20068;-78
2021/10/09 01:45:51;;;;;;;20.50;15.27;;;12.60;84.60;;;;;;5118227;27;20050;-78
2021/10/09 01:48:17;;;;;;;21.38;15.75;;;12.60;84.70;;;;;;5136390;27;20027;-78
2021/10/09 01:50:45;;;;;;;19.77;15.82;;;12.50;84.60;;;;;;5116564;27;20027;-77
2021/10/09 01:53:11;;;;;;;19.85;15.90;;;12.50;84.60;;;;;;5121102;27;20042;-77
2021/10/09 01:55:38;;;;;;;19.65;15.27;;;12.50;84.70;;;;;;5127783;27;20023;-78
2021/10/09 01:58:04;;;;;;;20.15;15.82;;;12.50;84.70;;;;;;5146621;27;20118;-78
2021/10/09 02:00:30;;;;;;;20.90;16.10;;;12.50;84.80;;;;;;5128707;27;20035;-77
2021/10/09 02:03:01;;;;;;;20.67;16.25;;;12.50;84.80;;;;;;5128790;28;20024;-79
2021/10/09 02:05:28;;;;;;;20.80;15.95;;;12.40;84.80;;;;;;5128275;28;20092;-78
2021/10/09 02:07:54;;;;;;;21.90;16.23;;;12.40;84.80;;;;;;5127322;28;20023;-77
2021/10/09 02:10:19;;;;;;;19.27;15.55;;;12.40;84.90;;;;;;5127640;28;20020;-78
2021/10/09 02:12:45;;;;;;;21.23;16.55;;;12.40;85.00;;;;;;5126732;28;20027;-76
2021/10/09 02:15:17;;;;;;;22.85;16.35;;;12.30;85.00;;;;;;5145381;28;20072;-76
2021/10/09 02:25:49;;;;;;;21.20;15.95;;;12.30;85.10;;;;;;5134446;28;20124;-78
2021/10/09 02:28:26;;;;;;;23.88;16.90;;;12.20;85.00;;;;;;5115561;28;20019;-78
2021/10/09 02:30:54;;;;;;;21.58;16.60;;;12.20;85.10;;;;;;5115470;28;20567;-78
2021/10/09 02:33:19;;;;;;;19.88;15.88;;;12.20;85.20;;;;;;5115101;28;20027;-78
2021/10/09 02:35:46;;;;;;;21.77;16.02;;;12.20;85.20;;;;;;5115208;28;20506;-79
2021/10/09 02:38:12;;;;;;;22.17;16.05;;;12.20;85.30;;;;;;5115290;28;20498;-78
2021/10/09 02:40:40;;;;;;;23.60;16.17;;;12.10;85.20;;;;;;5114706;28;20019;-78
2021/10/09 02:43:06;;;;;;;20.58;15.95;;;12.10;85.30;;;;;;5133426;28;20133;-78
2021/10/09 02:45:33;;;;;;;22.23;16.60;;;12.10;85.30;;;;;;5114923;28;20494;-77
2021/10/09 02:48:00;;;;;;;21.77;16.63;;;12.10;85.40;;;;;;5114742;28;20023;-78
2021/10/09 02:50:27;;;;;;;21.13;16.05;;;12.10;85.40;;;;;;5111895;28;20031;-77
2021/10/09 02:52:53;;;;;;;22.55;16.48;;;12.00;85.40;;;;;;5114660;28;20395;-78
2021/10/09 02:55:19;;;;;;;22.73;16.88;;;12.00;85.40;;;;;;5114708;28;20022;-78
2021/10/09 02:57:48;;;;;;;22.42;16.77;;;12.00;85.50;;;;;;5132796;28;20039;-78
2021/10/09 03:00:16;;;;;;;24.38;16.92;;;11.90;85.50;;;;;;5133101;28;20102;-78
2021/10/09 03:02:41;;;;;;;23.95;16.85;;;11.90;85.50;;;;;;5114494;28;20047;-78
2021/10/09 03:05:08;;;;;;;21.77;16.38;;;11.90;85.60;;;;;;5114593;28;20055;-77
2021/10/09 03:07:34;;;;;;;21.85;15.85;;;11.90;85.60;;;;;;5114526;28;20015;-78
2021/10/09 03:10:00;;;;;;;23.50;16.67;;;11.90;85.60;;;;;;5134049;27;20094;-78
2021/10/09 03:12:26;;;;;;;23.80;17.55;;;11.80;85.60;;;;;;5136717;27;20042;-77
2021/10/09 03:14:52;;;;;;;22.88;16.98;;;11.80;85.60;;;;;;5118422;27;20519;-78
2021/10/09 03:17:17;;;;;;;22.25;15.80;;;11.80;85.70;;;;;;5118441;27;20011;-78
2021/10/09 03:19:43;;;;;;;23.15;17.02;;;11.80;85.70;;;;;;5118336;27;20105;-77
2021/10/09 03:22:09;;;;;;;22.15;17.17;;;11.70;85.80;;;;;;5118291;27;20030;-78
2021/10/09 03:24:34;;;;;;;22.02;16.58;;;11.70;85.80;;;;;;5118266;27;20065;-78
2021/10/09 03:27:00;;;;;;;25.70;17.40;;;11.70;85.90;;;;;;5136662;27;20450;-78
2021/10/09 03:29:26;;;;;;;23.50;17.70;;;11.70;85.90;;;;;;5118059;27;20043;-78
2021/10/09 03:31:52;;;;;;;21.38;16.45;;;11.70;85.80;;;;;;5136408;27;20110;-78
2021/10/09 03:34:18;;;;;;;22.35;17.20;;;11.70;85.90;;;;;;5115024;27;20130;-78
2021/10/09 03:36:44;;;;;;;20.55;16.58;;;11.70;85.90;;;;;;5117815;27;20103;-78
2021/10/09 03:39:14;;;;;;;23.00;17.33;;;11.60;85.90;;;;;;5117755;27;20055;-78
2021/10/09 03:41:44;;;;;;;21.63;16.33;;;11.60;85.90;;;;;;5117671;27;20023;-79
2021/10/09 03:44:12;;;;;;;22.50;17.15;;;11.60;86.00;;;;;;5117558;27;20390;-78
2021/10/09 03:46:44;;;;;;;22.65;17.73;;;11.60;86.00;;;;;;5117711;27;20011;-79
2021/10/09 03:49:26;;;;;;;22.77;16.98;;;11.50;86.00;;;;;;5117728;27;20029;-78
2021/10/09 03:54:35;;;;;;;23.00;16.55;;;11.50;86.10;;;;;;5136333;27;20025;-78
2021/10/09 03:57:01;;;;;;;24.60;16.67;;;11.50;86.10;;;;;;5135786;27;20122;-78
2021/10/09 03:59:27;;;;;;;21.63;16.90;;;11.40;86.10;;;;;;5117456;27;20019;-79
2021/10/09 04:01:52;;;;;;;22.67;17.00;;;11.40;86.10;;;;;;5117461;27;20027;-78
2021/10/09 04:04:18;;;;;;;23.95;17.15;;;11.40;86.10;;;;;;5117136;27;20113;-78
2021/10/09 04:06:43;;;;;;;25.17;17.98;;;11.40;86.10;;;;;;5117138;27;20046;-79
2021/10/09 04:09:09;;;;;;;24.70;17.95;;;11.40;86.20;;;;;;5117164;27;20019;-78
2021/10/09 04:11:34;;;;;;;23.50;18.25;;;11.40;86.20;;;;;;5117072;27;20031;-78
2021/10/09 04:14:00;;;;;;;26.25;18.10;;;11.40;86.90;;;;;;5117143;27;20033;-78
2021/10/09 04:16:26;;;;;;;21.60;17.75;;;11.40;86.20;;;;;;5116910;27;20108;-78
2021/10/09 04:18:51;;;;;;;26.42;17.98;;;11.30;86.20;;;;;;5116931;27;20015;-78
2021/10/09 04:21:17;;;;;;;24.63;17.75;;;11.30;86.20;;;;;;5134447;27;20027;-78
2021/10/09 04:23:42;;;;;;;23.58;17.50;;;11.20;86.20;;;;;;5116581;27;20058;-78
2021/10/09 04:26:08;;;;;;;23.63;17.35;;;11.20;86.30;;;;;;5116843;27;20015;-77
2021/10/09 04:28:34;;;;;;;23.40;17.70;;;11.20;86.30;;;;;;5116726;27;20038;-77
2021/10/09 04:31:01;;;;;;;23.00;17.55;;;11.20;86.30;;;;;;5135131;27;20019;-78
2021/10/09 04:33:28;;;;;;;22.88;17.27;;;11.20;86.40;;;;;;5135043;27;20028;-77
2021/10/09 04:35:53;;;;;;;22.83;16.27;;;11.10;86.40;;;;;;5134998;27;20482;-78
2021/10/09 04:38:20;;;;;;;23.50;17.77;;;11.10;86.40;;;;;;5116511;27;20019;-78
2021/10/09 04:40:45;;;;;;;22.92;17.77;;;11.10;86.40;;;;;;5116490;27;20073;-78
2021/10/09 04:43:11;;;;;;;24.33;18.10;;;11.10;86.50;;;;;;5134924;27;20063;-78
2021/10/09 04:45:36;;;;;;;22.50;16.58;;;11.10;86.50;;;;;;5116231;27;20072;-77
2021/10/09 04:48:04;;;;;;;24.70;18.83;;;11.10;86.50;;;;;;5134755;27;20030;-77
2021/10/09 04:50:29;;;;;;;23.30;18.38;;;11.10;86.50;;;;;;5134711;27;20015;-78
2021/10/09 04:52:55;;;;;;;24.52;18.25;;;11.00;86.50;;;;;;5134717;27;20054;-77
2021/10/09 04:55:21;;;;;;;23.65;17.42;;;11.00;86.50;;;;;;5116212;27;20031;-77
2021/10/09 04:57:47;;;;;;;26.55;19.10;;;11.00;86.60;;;;;;5116068;27;20051;-77
2021/10/09 05:00:13;;;;;;;25.70;18.00;;;11.00;86.70;;;;;;5134609;27;20023;-77
2021/10/09 05:02:38;;;;;;;24.88;17.58;;;10.90;86.70;;;;;;5134888;27;20106;-77
2021/10/09 05:05:04;;;;;;;25.50;17.73;;;10.90;86.70;;;;;;5116551;27;20106;-77
2021/10/09 05:07:30;;;;;;;24.98;17.88;;;10.90;86.70;;;;;;5116356;27;20011;-77
2021/10/09 05:09:56;;;;;;;26.38;18.67;;;10.90;86.70;;;;;;5116118;27;20050;-77
2021/10/09 05:12:21;;;;;;;25.55;18.52;;;10.90;86.70;;;;;;5115989;27;20015;-77
2021/10/09 05:14:47;;;;;;;26.58;18.70;;;10.90;86.70;;;;;;5116010;27;20027;-77
2021/10/09 05:17:13;;;;;;;24.98;18.17;;;10.80;86.70;;;;;;5116012;27;20485;-77
2021/10/09 05:19:38;;;;;;;24.30;17.50;;;10.80;86.70;;;;;;5115841;27;20027;-78
2021/10/09 05:22:04;;;;;;;27.23;18.92;;;10.80;86.70;;;;;;5116061;27;20023;-78
2021/10/09 05:24:29;;;;;;;25.45;17.90;;;10.80;86.80;;;;;;5115626;27;20027;-78
2021/10/09 05:26:56;;;;;;;26.50;18.20;;;10.80;86.90;;;;;;5115753;27;20038;-77
2021/10/09 05:29:23;;;;;;;25.23;18.10;;;10.80;86.80;;;;;;5115842;27;20030;-78
2021/10/09 05:31:51;;;;;;;25.08;18.98;;;10.70;86.80;;;;;;5115794;27;20055;-78
2021/10/09 05:34:17;;;;;;;25.88;18.70;;;10.70;86.80;;;;;;5115338;27;20438;-78
2021/10/09 05:36:43;;;;;;;24.25;18.38;;;10.70;86.80;;;;;;5115481;27;20015;-77
2021/10/09 05:39:08;;;;;;;25.27;18.13;;;10.70;86.90;;;;;;5115570;27;20023;-78
2021/10/09 05:41:34;;;;;;;25.25;18.20;;;10.70;86.90;;;;;;5115737;27;20059;-77
2021/10/09 05:43:59;;;;;;;24.55;18.33;;;10.70;86.90;;;;;;5133864;27;20055;-78
2021/10/09 05:46:25;;;;;;;28.25;18.40;;;10.70;86.90;;;;;;5115410;27;20020;-78
2021/10/09 05:48:52;;;;;;;24.33;18.00;;;10.70;87.00;;;;;;5115556;27;20023;-78
2021/10/09 05:51:23;;;;;;;29.75;19.52;;;10.70;87.00;;;;;;5115403;28;20037;-78
2021/10/09 06:47:30;;;;;;;27.38;17.85;;;10.60;86.90;;;;;;5137620;27;20467;-78
2021/10/09 07:01:33;;;;;;;23.55;16.92;;;10.70;86.90;;;;;;5137232;27;20127;-77
2021/10/09 07:03:58;;;;;;;25.10;17.25;;;10.70;86.90;;;;;;5118324;27;20031;-78
2021/10/09 07:06:24;;;;;;;24.55;17.52;;;10.80;86.90;;;;;;5118312;27;20019;-77
2021/10/09 07:12:23;;;;;;;24.55;16.95;;;10.80;86.80;;;;;;5137189;27;20027;-79
2021/10/09 07:18:13;;;;;;;22.83;17.08;;;10.90;86.70;;;;;;5136791;27;20124;-78
2021/10/09 07:20:40;;;;;;;23.52;17.05;;;10.90;86.70;;;;;;5118323;27;20037;-77
2021/10/09 07:23:07;;;;;;;22.40;16.60;;;10.90;86.70;;;;;;5136490;27;20087;-78
2021/10/09 07:25:34;;;;;;;23.75;17.35;;;11.00;86.60;;;;;;5136425;27;20011;-78
2021/10/09 07:28:00;;;;;;;23.58;16.88;;;11.00;86.50;;;;;;5136401;27;20027;-78
2021/10/09 07:30:27;;;;;;;24.20;17.27;;;11.00;86.50;;;;;;5118164;27;20031;-78
2021/10/09 07:33:33;;;;;;;23.35;16.15;;;11.00;86.50;;;;;;5118171;27;20023;-78
2021/10/09 07:35:59;;;;;;;21.02;15.77;;;11.00;86.50;;;;;;5117743;27;20080;-78
2021/10/09 07:38:24;;;;;;;22.25;16.35;;;11.00;86.40;;;;;;5117845;27;20474;-78
2021/10/09 07:40:50;;;;;;;24.90;17.30;;;11.10;86.40;;;;;;5136265;27;20027;-78
2021/10/09 07:43:15;;;;;;;24.15;16.58;;;11.10;86.30;;;;;;5117687;27;20019;-76
2021/10/09 07:45:41;;;;;;;24.88;16.10;;;11.20;86.30;;;;;;5117782;27;20019;-79
2021/10/09 07:48:06;;;;;;;23.75;16.15;;;11.20;86.10;;;;;;5117676;27;20309;-77
2021/10/09 07:50:32;;;;;;;21.48;15.18;;;11.20;86.10;;;;;;5117562;27;20019;-78
2021/10/09 07:52:58;;;;;;;21.33;14.80;;;11.20;86.10;;;;;;5136337;27;20029;-78
2021/10/09 07:55:24;;;;;;;24.02;16.15;;;11.20;86.00;;;;;;5117259;27;20023;-78
2021/10/09 07:57:50;;;;;;;23.58;15.98;;;11.20;86.00;;;;;;5117338;27;20090;-78
2021/10/09 08:00:15;;;;;;;21.02;14.77;;;11.20;86.00;;;;;;5117384;27;20023;-77
2021/10/09 08:02:52;;;;;;;21.08;15.70;;;11.20;86.00;;;;;;5117313;27;20022;-78
2021/10/09 08:08:40;;;;;;;22.25;15.18;;;11.00;85.90;;;;;;5136031;27;20048;-78
2021/10/09 08:11:06;;;;;;;20.60;15.32;;;11.00;85.90;;;;;;5117185;27;20019;-78
2021/10/09 08:13:32;;;;;;;23.75;16.88;;;11.00;85.90;;;;;;5135738;27;20034;-78
2021/10/09 08:15:57;;;;;;;20.98;16.42;;;11.00;85.90;;;;;;5117234;27;20030;-78
2021/10/09 08:18:23;;;;;;;22.48;15.90;;;11.00;85.90;;;;;;5117124;27;20073;-78
2021/10/09 08:20:54;;;;;;;22.13;16.42;;;11.00;85.90;;;;;;5117042;27;20118;-78
2021/10/09 08:23:27;;;;;;;21.85;15.52;;;11.00;85.90;;;;;;5135423;27;20027;-78
2021/10/09 08:39:29;;;;;;;21.05;14.45;;;11.40;85.30;;;;;;5135592;27;20027;-79
2021/10/09 08:41:55;;;;;;;22.45;14.57;;;11.50;85.20;;;;;;5116690;27;20100;-77
2021/10/09 08:44:20;;;;;;;20.75;14.90;;;11.50;85.10;;;;;;5134984;27;20027;-77
2021/10/09 08:46:46;;;;;;;22.05;15.98;;;11.50;85.00;;;;;;5116571;27;20076;-77
2021/10/09 08:49:12;;;;;;;20.00;15.85;;;11.60;85.00;;;;;;5116578;27;20015;-76
2021/10/09 08:51:40;;;;;;;23.25;15.73;;;11.60;84.90;;;;;;5116420;27;20394;-77
2021/10/09 08:54:10;;;;;;;21.45;16.45;;;11.60;84.80;;;;;;5134912;27;20027;-77
2021/10/09 08:56:40;;;;;;;22.23;16.73;;;11.60;84.70;;;;;;5116248;27;20026;-78
2021/10/09 08:59:29;;;;;;;22.50;17.08;;;11.70;84.60;;;;;;5116271;27;20027;-78
2021/10/09 09:02:11;;;;;;;23.55;16.85;;;11.70;84.60;;;;;;5116440;27;20488;-77
2021/10/09 09:05:02;;;;;;;22.02;16.23;;;11.70;84.40;;;;;;5116019;27;20513;-77
2021/10/09 09:40:07;;;;;;;22.80;16.20;;;12.40;82.80;;;;;;5134218;27;20039;-77
2021/10/09 09:42:48;;;;;;;21.73;16.35;;;12.40;82.80;;;;;;5115522;27;20052;-78
2021/10/09 09:45:22;;;;;;;20.92;15.35;;;12.40;82.80;;;;;;5115447;27;20118;-77
2021/10/09 09:47:48;;;;;;;20.92;15.48;;;12.40;82.80;;;;;;5115382;27;20019;-78
2021/10/09 09:50:14;;;;;;;20.75;16.08;;;12.40;82.80;;;;;;5133724;27;20027;-78
2021/10/09 09:52:45;;;;;;;23.33;15.77;;;12.50;82.80;;;;;;5115250;27;20011;-77
2021/10/09 09:55:15;;;;;;;21.02;14.45;;;12.60;82.70;;;;;;5115533;27;20024;-77
2021/10/09 09:57:41;;;;;;;23.42;16.13;;;12.70;82.60;;;;;;5115230;28;20039;-78
2021/10/09 10:00:09;;;;;;;21.10;16.05;;;12.70;82.40;;;;;;5115287;28;20498;-78
2021/10/09 10:02:56;;;;;;;25.63;15.77;;;12.80;82.30;;;;;;5115425;27;20027;-77
2021/10/09 10:05:24;;;;;;;20.98;15.05;;;12.80;82.10;;;;;;5115311;28;20027;-77
2021/10/09 10:07:51;;;;;;;21.52;14.57;;;12.90;82.00;;;;;;5133928;28;20015;-78
2021/10/09 10:10:18;;;;;;;19.00;14.75;;;12.90;81.80;;;;;;5133690;28;20102;-77
2021/10/09 10:12:46;;;;;;;18.65;14.45;;;13.00;81.70;;;;;;5115246;28;20027;-78
2021/10/09 10:15:13;;;;;;;20.60;14.60;;;13.00;81.60;;;;;;5115398;28;20019;-77
2021/10/09 10:17:45;;;;;;;21.38;15.50;;;13.10;81.50;;;;;;5115379;28;20026;-76
2021/10/09 10:20:15;;;;;;;20.40;14.40;;;13.20;81.40;;;;;;5135151;27;20095;-78
2021/10/09 10:22:40;;;;;;;20.77;14.77;;;13.30;81.20;;;;;;5119658;27;20027;-77
2021/10/09 10:25:21;;;;;;;17.88;13.85;;;13.40;81.00;;;;;;5119246;27;20391;-78
2021/10/09 10:27:59;;;;;;;21.33;14.07;;;13.40;80.80;;;;;;5119215;27;20136;-78
2021/10/09 10:30:28;;;;;;;17.75;13.02;;;13.50;80.60;;;;;;5137753;27;20068;-78
2021/10/09 10:32:58;;;;;;;18.85;14.55;;;13.60;80.50;;;;;;5119215;27;20390;-77
2021/10/09 10:35:29;;;;;;;21.80;14.43;;;13.60;80.30;;;;;;5119192;27;20023;-78
2021/10/09 10:38:09;;;;;;;17.02;12.98;;;13.70;80.20;;;;;;5119163;27;20083;-77
2021/10/09 10:40:51;;;;;;;19.50;14.48;;;13.70;80.10;;;;;;5137577;27;20023;-78
2021/10/09 10:46:21;;;;;;;17.58;14.57;;;13.90;79.80;;;;;;5137332;27;20435;-78
2021/10/09 10:49:00;;;;;;;20.75;15.43;;;14.00;79.70;;;;;;5109752;27;20552;-78
2021/10/09 10:56:36;;;;;;;19.15;14.00;;;14.10;79.40;;;;;;5136991;27;20023;-78
2021/10/09 10:59:59;;;;;;;19.73;14.48;;;14.10;79.30;;;;;;5137288;27;20039;-77
2021/10/09 11:02:39;;;;;;;18.63;13.25;;;14.20;79.20;;;;;;5134587;27;20507;-78
2021/10/09 11:05:16;;;;;;;23.92;14.20;;;14.30;79.00;;;;;;5134821;27;20076;-79
2021/10/09 11:07:44;;;;;;;18.13;13.40;;;14.40;78.90;;;;;;5118703;27;20024;-78
2021/10/09 11:10:20;;;;;;;18.00;13.10;;;14.40;78.70;;;;;;5118537;27;20379;-78
2021/10/09 11:12:50;;;;;;;17.73;13.00;;;14.50;78.60;;;;;;5118865;27;20024;-78
2021/10/09 11:15:22;;;;;;;20.38;13.45;;;14.50;78.40;;;;;;5136690;27;20019;-78
2021/10/09 11:17:59;;;;;;;18.45;13.02;;;14.60;78.40;;;;;;5118296;27;20158;-77
2021/10/09 11:20:37;;;;;;;17.02;13.18;;;14.60;78.20;;;;;;5118345;27;20039;-79
2021/10/09 11:23:05;;;;;;;21.48;13.60;;;14.60;78.10;;;;;;5118174;27;20019;-78
2021/10/09 11:25:40;;;;;;;20.08;13.23;;;14.70;78.00;;;;;;5118520;27;20023;-78
2021/10/09 11:28:20;;;;;;;18.17;13.20;;;14.80;77.90;;;;;;5118208;27;20087;-78
2021/10/09 11:30:45;;;;;;;18.27;13.23;;;14.90;77.90;;;;;;5117601;27;20029;-78
2021/10/09 11:33:11;;;;;;;17.48;12.88;;;14.90;78.20;;;;;;5118156;27;20457;-78
2021/10/09 11:35:39;;;;;;;18.73;12.80;;;15.00;77.40;;;;;;5136423;27;20125;-78
2021/10/09 11:38:18;;;;;;;16.52;12.20;;;15.10;77.30;;;;;;5118150;27;20015;-78
2021/10/09 11:54:21;;;;;;;18.08;12.98;;;15.40;76.30;;;;;;5136909;27;20118;-79
2021/10/09 11:56:47;;;;;;;16.65;12.25;;;15.40;76.30;;;;;;5117484;27;20501;-78
2021/10/09 11:59:14;;;;;;;18.67;12.82;;;15.60;76.20;;;;;;5132938;27;20035;-79
2021/10/09 12:01:47;;;;;;;18.95;12.63;;;15.70;76.00;;;;;;5117572;27;20023;-78
2021/10/09 12:04:13;;;;;;;15.23;11.20;;;15.70;75.60;;;;;;5135870;27;20062;-78
2021/10/09 12:06:51;;;;;;;19.17;13.48;;;15.80;75.50;;;;;;5117501;27;20015;-78
2021/10/09 12:09:47;;;;;;;17.83;11.88;;;15.80;75.30;;;;;;5117609;27;20016;-79
2021/10/09 12:12:17;;;;;;;18.05;13.18;;;15.90;75.30;;;;;;5117681;27;20007;-78
2021/10/09 12:14:43;;;;;;;18.83;12.45;;;15.90;75.10;;;;;;5117541;27;20027;-78
2021/10/09 12:17:09;;;;;;;16.00;12.50;;;16.00;75.10;;;;;;5135342;27;20094;-78
2021/10/09 12:19:35;;;;;;;18.77;12.15;;;16.00;75.00;;;;;;5135731;27;20046;-78
2021/10/09 12:22:03;;;;;;;17.23;12.27;;;16.10;74.80;;;;;;5116925;27;20026;-78
2021/10/09 12:24:43;;;;;;;19.20;13.75;;;16.20;74.60;;;;;;5135600;27;20035;-78
2021/10/09 12:27:17;;;;;;;19.83;13.43;;;16.20;74.20;;;;;;5116880;27;20027;-77
2021/10/09 12:29:55;;;;;;;15.43;12.18;;;16.20;73.90;;;;;;5116906;27;20042;-78
2021/10/09 12:32:21;;;;;;;16.27;11.82;;;16.20;73.90;;;;;;5116981;27;20024;-76
2021/10/09 12:35:01;;;;;;;17.10;12.70;;;16.20;73.90;;;;;;5135296;27;20124;-77
2021/10/09 12:37:28;;;;;;;17.13;11.85;;;16.30;73.80;;;;;;5116788;27;20102;-78
2021/10/09 12:40:11;;;;;;;17.45;11.90;;;16.40;73.70;;;;;;5116667;27;20015;-78
2021/10/09 12:42:37;;;;;;;14.88;11.65;;;16.40;73.50;;;;;;5134315;27;20046;-77
2021/10/09 12:45:06;;;;;;;15.55;11.52;;;16.50;73.40;;;;;;5135074;27;20024;-78
2021/10/09 12:47:31;;;;;;;17.13;11.77;;;16.60;73.30;;;;;;5116543;27;20016;-77
2021/10/09 12:49:58;;;;;;;16.65;12.45;;;16.70;73.00;;;;;;5116488;27;20029;-78
2021/10/09 12:52:24;;;;;;;15.00;11.48;;;16.70;72.90;;;;;;5116422;27;20031;-78
2021/10/09 12:54:49;;;;;;;17.83;12.48;;;16.80;72.70;;;;;;5116290;27;20026;-78
2021/10/09 12:57:15;;;;;;;16.27;11.77;;;16.80;72.40;;;;;;5116192;27;20047;-79
2021/10/09 12:59:41;;;;;;;13.85;10.80;;;16.80;72.20;;;;;;5134766;27;20094;-79
2021/10/09 13:02:06;;;;;;;13.32;10.40;;;16.90;72.20;;;;;;5116361;27;20069;-78
2021/10/09 13:04:34;;;;;;;15.35;10.98;;;16.90;72.10;;;;;;5134810;27;20411;-78
2021/10/09 13:07:00;;;;;;;17.88;12.13;;;17.00;72.00;;;;;;5116335;27;20027;-78
2021/10/09 13:09:26;;;;;;;17.02;11.48;;;17.00;71.90;;;;;;5116062;27;20019;-78
2021/10/09 13:11:59;;;;;;;16.65;11.77;;;17.00;71.70;;;;;;5116062;27;20493;-78
2021/10/09 13:14:25;;;;;;;15.75;11.35;;;17.10;71.70;;;;;;5116141;27;20102;-77
2021/10/09 13:16:51;;;;;;;14.10;11.00;;;17.20;71.50;;;;;;5116082;27;20122;-78
2021/10/09 13:19:16;;;;;;;15.35;11.32;;;17.20;71.40;;;;;;5116178;27;20019;-78
2021/10/09 13:21:42;;;;;;;14.55;11.07;;;17.30;71.20;;;;;;5134228;27;20027;-79
2021/10/09 13:24:08;;;;;;;15.50;10.70;;;17.30;71.00;;;;;;5115743;27;20019;-78
2021/10/09 13:26:35;;;;;;;14.50;10.48;;;17.40;70.80;;;;;;5115939;27;20023;-78
2021/10/09 13:29:01;;;;;;;16.10;11.50;;;17.50;70.90;;;;;;5134362;27;20359;-78
2021/10/09 13:31:27;;;;;;;15.68;10.32;;;17.50;70.70;;;;;;5134292;27;20030;-78
2021/10/09 13:33:52;;;;;;;14.20;10.85;;;17.60;70.60;;;;;;5131044;27;20136;-77
2021/10/09 13:36:22;;;;;;;16.70;11.07;;;17.60;70.40;;;;;;5115737;27;20060;-78
2021/10/09 13:38:49;;;;;;;15.65;11.18;;;17.70;70.30;;;;;;5115631;27;20030;-77
2021/10/09 13:41:14;;;;;;;16.25;10.75;;;17.80;70.20;;;;;;5115618;27;20041;-78
2021/10/09 13:43:40;;;;;;;13.00;10.07;;;17.80;70.20;;;;;;5115485;27;20102;-78
2021/10/09 13:46:06;;;;;;;12.85;10.20;;;17.80;70.00;;;;;;5115260;27;20449;-78
2021/10/09 13:48:32;;;;;;;15.00;10.10;;;17.80;69.90;;;;;;5115277;27;20023;-77
2021/10/09 13:50:58;;;;;;;15.88;10.68;;;17.90;69.90;;;;;;5115376;27;20378;-77
2021/10/09 13:53:24;;;;;;;14.50;10.73;;;17.90;69.70;;;;;;5133859;27;20023;-77
2021/10/09 13:55:51;;;;;;;14.82;10.10;;;18.00;69.70;;;;;;5115639;27;20023;-78
2021/10/09 13:58:18;;;;;;;13.52;9.65;;;18.00;69.60;;;;;;5115638;27;20067;-77
2021/10/09 14:00:45;;;;;;;14.80;9.60;;;18.10;69.60;;;;;;5115378;27;20571;-77
2021/10/09 14:03:11;;;;;;;13.18;9.73;;;18.10;69.60;;;;;;5115447;27;20114;-77
2021/10/09 14:05:37;;;;;;;17.25;11.27;;;18.20;69.30;;;;;;5115377;27;20019;-78
2021/10/09 14:08:04;;;;;;;12.77;9.15;;;18.20;69.00;;;;;;5133988;27;20027;-77
2021/10/09 14:10:30;;;;;;;13.80;9.20;;;18.20;69.00;;;;;;5115617;28;20016;-77
2021/10/09 14:12:57;;;;;;;15.82;9.80;;;18.30;68.90;;;;;;5115129;28;20077;-77
2021/10/09 14:15:24;;;;;;;13.57;9.05;;;18.30;68.80;;;;;;5115445;28;20497;-76
2021/10/09 14:17:50;;;;;;;13.85;9.10;;;18.30;68.80;;;;;;5133927;28;20095;-78
2021/10/09 14:20:16;;;;;;;13.93;10.07;;;18.30;68.80;;;;;;5115329;28;20012;-77
2021/10/09 14:22:42;;;;;;;13.73;10.20;;;18.40;68.60;;;;;;5115840;28;20030;-79
2021/10/09 14:25:10;;;;;;;14.35;9.65;;;18.40;68.50;;;;;;5115616;28;20023;-76
2021/10/09 14:27:36;;;;;;;15.70;10.45;;;18.50;68.30;;;;;;5115250;28;20069;-79
2021/10/09 14:30:03;;;;;;;13.40;9.50;;;18.40;68.10;;;;;;5115402;28;20544;-78
2021/10/09 14:32:29;;;;;;;12.75;9.93;;;18.40;68.20;;;;;;5115514;28;20055;-78
2021/10/09 14:34:55;;;;;;;16.10;11.13;;;18.50;68.20;;;;;;5115039;28;20030;-77
2021/10/09 14:37:21;;;;;;;13.65;9.82;;;18.50;68.00;;;;;;5115131;28;20023;-77
2021/10/09 14:39:46;;;;;;;10.95;8.80;;;18.40;67.80;;;;;;5115255;28;20383;-77
2021/10/09 14:42:13;;;;;;;13.02;8.93;;;18.40;67.90;;;;;;5115122;28;20046;-76
2021/10/09 14:44:39;;;;;;;13.27;8.32;;;18.40;67.90;;;;;;5114810;28;20022;-76
2021/10/09 14:50:00;;;;;;;12.82;9.48;;;18.40;67.90;;;;;;5133656;28;20030;-77
2021/10/09 15:18:51;;;;;;;13.63;10.13;;;18.50;67.90;;;;;;5137348;27;20031;-79
2021/10/09 15:21:18;;;;;;;14.95;10.30;;;18.50;67.70;;;;;;5118599;27;20045;-80
2021/10/09 15:23:44;;;;;;;16.17;9.65;;;18.40;67.70;;;;;;5118887;27;20031;-78
2021/10/09 15:26:10;;;;;;;14.40;10.38;;;18.40;67.70;;;;;;5118607;27;20027;-78
2021/10/09 15:28:37;;;;;;;14.85;10.43;;;18.40;67.70;;;;;;5118256;27;20016;-81
2021/10/09 15:31:03;;;;;;;14.50;10.30;;;18.40;67.60;;;;;;5118597;27;20023;-80
2021/10/09 15:33:29;;;;;;;15.65;10.80;;;18.40;67.70;;;;;;5118580;27;20019;-80
2021/10/09 15:35:54;;;;;;;14.02;10.45;;;18.40;68.40;;;;;;5118771;27;20038;-79
2021/10/09 15:38:20;;;;;;;16.23;10.85;;;18.30;67.70;;;;;;5119494;27;20027;-79
2021/10/09 15:40:45;;;;;;;16.63;11.35;;;18.30;67.80;;;;;;5119743;27;20044;-80
2021/10/09 15:43:11;;;;;;;14.82;10.95;;;18.20;67.80;;;;;;5119551;27;20072;-80